sensor_id;sensor_type;location;lat;lon;timestamp;P1;durP1;ratioP1;P2;durP2;ratioP2
9924;SDS011;5001;51.674;7.868;2023-11-21T00:00:16;12.70;;;11.70;;
9924;SDS011;5001;51.674;7.868;2023-11-21T00:02:43;12.90;;;11.80;;
9924;SDS011;5001;51.674;7.868;2023-11-21T00:05:13;12.63;;;11.43;;
9924;SDS011;5001;51.674;7.868;2023-11-21T00:07:41;14.50;;;11.77;;
9924;SDS011;5001;51.674;7.868;2023-11-21T00:10:09;12.70;;;11.60;;
9924;SDS011;5001;51.674;7.868;2023-11-21T00:12:37;12.97;;;11.87;;
9924;SDS011;5001;51.674;7.868;2023-11-21T00:15:04;12.87;;;11.67;;
9924;SDS011;5001;51.674;7.868;2023-11-21T00:17:32;13.63;;;12.03;;
9924;SDS011;5001;51.674;7.868;2023-11-21T00:19:59;15.83;;;12.70;;
9924;SDS011;5001;51.674;7.868;2023-11-21T00:22:26;13.17;;;11.90;;
9924;SDS011;5001;51.674;7.868;2023-11-21T00:24:53;14.33;;;11.83;;
9924;SDS011;5001;51.674;7.868;2023-11-21T00:27:19;12.80;;;11.57;;
9924;SDS011;5001;51.674;7.868;2023-11-21T00:29:47;15.17;;;12.27;;
9924;SDS011;5001;51.674;7.868;2023-11-21T00:32:14;13.67;;;12.27;;
9924;SDS011;5001;51.674;7.868;2023-11-21T00:34:42;13.83;;;12.70;;
9924;SDS011;5001;51.674;7.868;2023-11-21T00:37:09;14.17;;;13.00;;
9924;SDS011;5001;51.674;7.868;2023-11-21T00:39:36;16.13;;;12.97;;
9924;SDS011;5001;51.674;7.868;2023-11-21T00:42:03;14.57;;;13.20;;
9924;SDS011;5001;51.674;7.868;2023-11-21T00:44:31;15.17;;;13.70;;
9924;SDS011;5001;51.674;7.868;2023-11-21T00:46:58;13.80;;;12.70;;
9924;SDS011;5001;51.674;7.868;2023-11-21T00:49:25;14.27;;;12.97;;
9924;SDS011;5001;51.674;7.868;2023-11-21T00:51:52;13.00;;;12.10;;
9924;SDS011;5001;51.674;7.868;2023-11-21T00:54:19;15.57;;;12.73;;
9924;SDS011;5001;51.674;7.868;2023-11-21T00:56:46;13.63;;;12.40;;
9924;SDS011;5001;51.674;7.868;2023-11-21T00:59:15;21.30;;;14.33;;
9924;SDS011;5001;51.674;7.868;2023-11-21T01:01:43;17.23;;;13.47;;
9924;SDS011;5001;51.674;7.868;2023-11-21T01:04:10;13.73;;;12.53;;
9924;SDS011;5001;51.674;7.868;2023-11-21T01:06:38;13.93;;;12.70;;
9924;SDS011;5001;51.674;7.868;2023-11-21T01:09:05;15.13;;;13.17;;
9924;SDS011;5001;51.674;7.868;2023-11-21T01:11:35;14.30;;;12.67;;
9924;SDS011;5001;51.674;7.868;2023-11-21T01:14:04;14.20;;;12.87;;
9924;SDS011;5001;51.674;7.868;2023-11-21T01:16:31;13.57;;;12.17;;
9924;SDS011;5001;51.674;7.868;2023-11-21T01:19:02;13.53;;;12.40;;
9924;SDS011;5001;51.674;7.868;2023-11-21T01:21:31;13.70;;;12.30;;
9924;SDS011;5001;51.674;7.868;2023-11-21T01:23:58;14.17;;;12.33;;
9924;SDS011;5001;51.674;7.868;2023-11-21T01:26:25;14.17;;;12.47;;
9924;SDS011;5001;51.674;7.868;2023-11-21T01:28:52;15.37;;;13.87;;
9924;SDS011;5001;51.674;7.868;2023-11-21T01:31:19;12.87;;;11.67;;
9924;SDS011;5001;51.674;7.868;2023-11-21T01:33:47;13.40;;;12.03;;
9924;SDS011;5001;51.674;7.868;2023-11-21T01:36:15;12.77;;;11.63;;
9924;SDS011;5001;51.674;7.868;2023-11-21T01:38:44;13.00;;;11.70;;
9924;SDS011;5001;51.674;7.868;2023-11-21T01:41:12;13.03;;;11.07;;
9924;SDS011;5001;51.674;7.868;2023-11-21T01:43:41;13.20;;;11.90;;
9924;SDS011;5001;51.674;7.868;2023-11-21T01:46:08;15.43;;;11.70;;
9924;SDS011;5001;51.674;7.868;2023-11-21T01:48:36;13.50;;;12.00;;
9924;SDS011;5001;51.674;7.868;2023-11-21T01:51:05;13.57;;;12.17;;
9924;SDS011;5001;51.674;7.868;2023-11-21T01:53:32;12.93;;;11.77;;
9924;SDS011;5001;51.674;7.868;2023-11-21T01:55:59;12.83;;;11.70;;
9924;SDS011;5001;51.674;7.868;2023-11-21T01:58:26;13.13;;;11.77;;
9924;SDS011;5001;51.674;7.868;2023-11-21T02:00:53;13.97;;;11.83;;
9924;SDS011;5001;51.674;7.868;2023-11-21T02:03:21;18.03;;;11.47;;
9924;SDS011;5001;51.674;7.868;2023-11-21T02:05:48;14.80;;;11.93;;
9924;SDS011;5001;51.674;7.868;2023-11-21T02:08:15;13.13;;;11.63;;
9924;SDS011;5001;51.674;7.868;2023-11-21T02:10:42;13.13;;;11.90;;
9924;SDS011;5001;51.674;7.868;2023-11-21T02:13:10;12.40;;;11.10;;
9924;SDS011;5001;51.674;7.868;2023-11-21T02:15:37;12.93;;;10.87;;
9924;SDS011;5001;51.674;7.868;2023-11-21T02:18:05;16.47;;;12.40;;
9924;SDS011;5001;51.674;7.868;2023-11-21T02:20:33;13.07;;;11.73;;
9924;SDS011;5001;51.674;7.868;2023-11-21T02:23:02;13.93;;;12.53;;
9924;SDS011;5001;51.674;7.868;2023-11-21T02:25:32;13.87;;;12.43;;
9924;SDS011;5001;51.674;7.868;2023-11-21T02:28:01;13.53;;;12.23;;
9924;SDS011;5001;51.674;7.868;2023-11-21T02:30:29;16.27;;;12.70;;
9924;SDS011;5001;51.674;7.868;2023-11-21T02:32:59;14.73;;;12.97;;
9924;SDS011;5001;51.674;7.868;2023-11-21T02:35:27;21.20;;;13.30;;
9924;SDS011;5001;51.674;7.868;2023-11-21T02:38:00;14.23;;;12.90;;
9924;SDS011;5001;51.674;7.868;2023-11-21T02:40:27;13.70;;;12.43;;
9924;SDS011;5001;51.674;7.868;2023-11-21T02:42:57;13.10;;;11.70;;
9924;SDS011;5001;51.674;7.868;2023-11-21T02:45:26;15.07;;;12.83;;
9924;SDS011;5001;51.674;7.868;2023-11-21T02:47:53;14.17;;;12.97;;
9924;SDS011;5001;51.674;7.868;2023-11-21T02:50:21;13.97;;;12.60;;
9924;SDS011;5001;51.674;7.868;2023-11-21T02:52:50;13.70;;;12.50;;
9924;SDS011;5001;51.674;7.868;2023-11-21T02:55:19;13.20;;;12.17;;
9924;SDS011;5001;51.674;7.868;2023-11-21T02:57:46;13.83;;;12.60;;
9924;SDS011;5001;51.674;7.868;2023-11-21T03:00:13;14.03;;;12.73;;
9924;SDS011;5001;51.674;7.868;2023-11-21T03:06:23;14.83;;;12.20;;
9924;SDS011;5001;51.674;7.868;2023-11-21T03:08:50;12.40;;;11.33;;
9924;SDS011;5001;51.674;7.868;2023-11-21T03:11:17;13.67;;;12.30;;
9924;SDS011;5001;51.674;7.868;2023-11-21T03:13:44;19.47;;;13.30;;
9924;SDS011;5001;51.674;7.868;2023-11-21T03:16:11;14.20;;;11.80;;
9924;SDS011;5001;51.674;7.868;2023-11-21T03:18:39;13.47;;;11.73;;
9924;SDS011;5001;51.674;7.868;2023-11-21T03:21:07;15.73;;;12.47;;
9924;SDS011;5001;51.674;7.868;2023-11-21T03:23:37;13.20;;;11.90;;
9924;SDS011;5001;51.674;7.868;2023-11-21T03:26:04;15.43;;;12.73;;
9924;SDS011;5001;51.674;7.868;2023-11-21T03:28:32;21.00;;;13.87;;
9924;SDS011;5001;51.674;7.868;2023-11-21T03:30:59;14.20;;;12.97;;
9924;SDS011;5001;51.674;7.868;2023-11-21T03:33:25;22.67;;;13.77;;
9924;SDS011;5001;51.674;7.868;2023-11-21T03:35:52;19.37;;;13.70;;
9924;SDS011;5001;51.674;7.868;2023-11-21T03:38:20;17.17;;;13.87;;
9924;SDS011;5001;51.674;7.868;2023-11-21T03:40:47;18.47;;;13.20;;
9924;SDS011;5001;51.674;7.868;2023-11-21T03:43:14;14.33;;;13.03;;
9924;SDS011;5001;51.674;7.868;2023-11-21T03:45:41;14.87;;;13.53;;
9924;SDS011;5001;51.674;7.868;2023-11-21T03:48:09;16.67;;;13.50;;
9924;SDS011;5001;51.674;7.868;2023-11-21T03:50:38;19.33;;;13.70;;
9924;SDS011;5001;51.674;7.868;2023-11-21T03:53:05;19.23;;;14.00;;
9924;SDS011;5001;51.674;7.868;2023-11-21T03:55:32;15.27;;;13.77;;
9924;SDS011;5001;51.674;7.868;2023-11-21T03:57:59;15.20;;;13.60;;
9924;SDS011;5001;51.674;7.868;2023-11-21T04:00:27;22.90;;;14.23;;
9924;SDS011;5001;51.674;7.868;2023-11-21T04:02:54;15.73;;;13.43;;
9924;SDS011;5001;51.674;7.868;2023-11-21T04:05:21;15.20;;;13.53;;
9924;SDS011;5001;51.674;7.868;2023-11-21T04:07:49;16.47;;;14.20;;
9924;SDS011;5001;51.674;7.868;2023-11-21T04:10:20;23.93;;;14.73;;
9924;SDS011;5001;51.674;7.868;2023-11-21T04:12:48;20.33;;;14.60;;
9924;SDS011;5001;51.674;7.868;2023-11-21T04:15:15;18.40;;;14.53;;
9924;SDS011;5001;51.674;7.868;2023-11-21T04:17:42;26.07;;;16.30;;
9924;SDS011;5001;51.674;7.868;2023-11-21T04:20:09;21.50;;;15.17;;
9924;SDS011;5001;51.674;7.868;2023-11-21T04:22:40;18.53;;;14.30;;
9924;SDS011;5001;51.674;7.868;2023-11-21T04:25:11;20.07;;;14.50;;
9924;SDS011;5001;51.674;7.868;2023-11-21T04:27:40;18.47;;;14.07;;
9924;SDS011;5001;51.674;7.868;2023-11-21T04:30:13;19.07;;;14.77;;
9924;SDS011;5001;51.674;7.868;2023-11-21T04:32:40;19.17;;;15.87;;
9924;SDS011;5001;51.674;7.868;2023-11-21T04:35:08;22.67;;;16.00;;
9924;SDS011;5001;51.674;7.868;2023-11-21T04:37:35;18.60;;;15.23;;
9924;SDS011;5001;51.674;7.868;2023-11-21T04:40:03;18.80;;;14.80;;
9924;SDS011;5001;51.674;7.868;2023-11-21T04:42:37;19.13;;;16.07;;
9924;SDS011;5001;51.674;7.868;2023-11-21T04:45:04;19.20;;;16.17;;
9924;SDS011;5001;51.674;7.868;2023-11-21T04:47:35;18.17;;;15.00;;
9924;SDS011;5001;51.674;7.868;2023-11-21T04:50:03;18.57;;;16.10;;
9924;SDS011;5001;51.674;7.868;2023-11-21T04:52:30;22.47;;;16.20;;
9924;SDS011;5001;51.674;7.868;2023-11-21T04:54:57;31.67;;;17.53;;
9924;SDS011;5001;51.674;7.868;2023-11-21T04:57:25;19.33;;;17.30;;
9924;SDS011;5001;51.674;7.868;2023-11-21T04:59:52;22.23;;;17.10;;
9924;SDS011;5001;51.674;7.868;2023-11-21T05:02:19;28.37;;;18.93;;
9924;SDS011;5001;51.674;7.868;2023-11-21T05:05:01;22.13;;;16.60;;
9924;SDS011;5001;51.674;7.868;2023-11-21T05:07:29;26.17;;;17.77;;
9924;SDS011;5001;51.674;7.868;2023-11-21T05:09:58;23.13;;;15.87;;
9924;SDS011;5001;51.674;7.868;2023-11-21T05:12:25;22.50;;;18.80;;
9924;SDS011;5001;51.674;7.868;2023-11-21T05:14:52;25.33;;;17.23;;
9924;SDS011;5001;51.674;7.868;2023-11-21T05:17:19;28.90;;;17.40;;
9924;SDS011;5001;51.674;7.868;2023-11-21T05:19:46;23.83;;;17.90;;
9924;SDS011;5001;51.674;7.868;2023-11-21T05:22:15;27.53;;;19.73;;
9924;SDS011;5001;51.674;7.868;2023-11-21T05:24:42;18.23;;;16.13;;
9924;SDS011;5001;51.674;7.868;2023-11-21T05:27:09;22.43;;;16.20;;
9924;SDS011;5001;51.674;7.868;2023-11-21T05:29:36;23.03;;;15.60;;
9924;SDS011;5001;51.674;7.868;2023-11-21T05:32:06;19.43;;;16.00;;
9924;SDS011;5001;51.674;7.868;2023-11-21T05:34:33;27.00;;;16.33;;
9924;SDS011;5001;51.674;7.868;2023-11-21T05:37:00;21.67;;;15.70;;
9924;SDS011;5001;51.674;7.868;2023-11-21T05:39:27;24.50;;;15.50;;
9924;SDS011;5001;51.674;7.868;2023-11-21T05:41:54;25.33;;;16.37;;
9924;SDS011;5001;51.674;7.868;2023-11-21T05:44:21;26.50;;;16.40;;
9924;SDS011;5001;51.674;7.868;2023-11-21T05:46:49;30.27;;;16.77;;
9924;SDS011;5001;51.674;7.868;2023-11-21T05:49:17;24.90;;;16.43;;
9924;SDS011;5001;51.674;7.868;2023-11-21T05:51:48;18.37;;;16.20;;
9924;SDS011;5001;51.674;7.868;2023-11-21T05:54:15;21.60;;;16.17;;
9924;SDS011;5001;51.674;7.868;2023-11-21T05:56:42;25.97;;;16.17;;
9924;SDS011;5001;51.674;7.868;2023-11-21T05:59:08;22.70;;;15.27;;
9924;SDS011;5001;51.674;7.868;2023-11-21T06:01:36;20.83;;;15.70;;
9924;SDS011;5001;51.674;7.868;2023-11-21T06:04:05;22.73;;;15.97;;
9924;SDS011;5001;51.674;7.868;2023-11-21T06:06:34;28.43;;;20.97;;
9924;SDS011;5001;51.674;7.868;2023-11-21T06:09:02;21.43;;;17.83;;
9924;SDS011;5001;51.674;7.868;2023-11-21T06:11:29;24.43;;;17.57;;
9924;SDS011;5001;51.674;7.868;2023-11-21T06:13:56;21.90;;;16.97;;
9924;SDS011;5001;51.674;7.868;2023-11-21T06:16:23;31.27;;;17.60;;
9924;SDS011;5001;51.674;7.868;2023-11-21T06:18:50;21.87;;;17.77;;
9924;SDS011;5001;51.674;7.868;2023-11-21T06:21:17;27.17;;;17.93;;
9924;SDS011;5001;51.674;7.868;2023-11-21T06:23:45;24.87;;;18.87;;
9924;SDS011;5001;51.674;7.868;2023-11-21T06:26:12;32.53;;;18.73;;
9924;SDS011;5001;51.674;7.868;2023-11-21T06:28:39;27.97;;;19.53;;
9924;SDS011;5001;51.674;7.868;2023-11-21T06:31:06;28.00;;;21.30;;
9924;SDS011;5001;51.674;7.868;2023-11-21T06:33:33;26.10;;;17.37;;
9924;SDS011;5001;51.674;7.868;2023-11-21T06:36:00;24.90;;;17.00;;
9924;SDS011;5001;51.674;7.868;2023-11-21T06:38:30;30.33;;;16.90;;
9924;SDS011;5001;51.674;7.868;2023-11-21T06:40:58;22.60;;;16.93;;
9924;SDS011;5001;51.674;7.868;2023-11-21T06:43:28;27.23;;;16.63;;
9924;SDS011;5001;51.674;7.868;2023-11-21T06:45:55;22.00;;;16.07;;
9924;SDS011;5001;51.674;7.868;2023-11-21T06:48:22;20.80;;;16.10;;
9924;SDS011;5001;51.674;7.868;2023-11-21T06:50:49;29.47;;;16.23;;
9924;SDS011;5001;51.674;7.868;2023-11-21T06:53:18;19.63;;;16.03;;
9924;SDS011;5001;51.674;7.868;2023-11-21T06:55:45;20.37;;;16.67;;
9924;SDS011;5001;51.674;7.868;2023-11-21T06:58:12;24.00;;;16.60;;
9924;SDS011;5001;51.674;7.868;2023-11-21T07:00:41;20.57;;;16.53;;
9924;SDS011;5001;51.674;7.868;2023-11-21T07:03:12;27.50;;;16.33;;
9924;SDS011;5001;51.674;7.868;2023-11-21T07:05:39;27.00;;;17.23;;
9924;SDS011;5001;51.674;7.868;2023-11-21T07:08:07;30.13;;;18.40;;
9924;SDS011;5001;51.674;7.868;2023-11-21T07:10:34;37.37;;;19.90;;
9924;SDS011;5001;51.674;7.868;2023-11-21T07:13:03;35.40;;;20.20;;
9924;SDS011;5001;51.674;7.868;2023-11-21T07:15:30;33.73;;;19.50;;
9924;SDS011;5001;51.674;7.868;2023-11-21T07:17:57;35.57;;;18.77;;
9924;SDS011;5001;51.674;7.868;2023-11-21T07:20:24;39.33;;;20.63;;
9924;SDS011;5001;51.674;7.868;2023-11-21T07:22:52;35.17;;;20.03;;
9924;SDS011;5001;51.674;7.868;2023-11-21T07:25:19;44.37;;;20.07;;
9924;SDS011;5001;51.674;7.868;2023-11-21T07:27:46;42.33;;;21.10;;
9924;SDS011;5001;51.674;7.868;2023-11-21T07:30:13;38.80;;;19.97;;
9924;SDS011;5001;51.674;7.868;2023-11-21T07:32:40;38.23;;;20.60;;
9924;SDS011;5001;51.674;7.868;2023-11-21T07:35:07;44.63;;;21.70;;
9924;SDS011;5001;51.674;7.868;2023-11-21T07:37:35;45.73;;;22.77;;
9924;SDS011;5001;51.674;7.868;2023-11-21T07:40:02;46.47;;;21.13;;
9924;SDS011;5001;51.674;7.868;2023-11-21T07:42:29;51.37;;;22.60;;
9924;SDS011;5001;51.674;7.868;2023-11-21T07:44:56;42.53;;;21.67;;
9924;SDS011;5001;51.674;7.868;2023-11-21T07:47:23;44.83;;;20.90;;
9924;SDS011;5001;51.674;7.868;2023-11-21T07:49:53;41.40;;;20.70;;
9924;SDS011;5001;51.674;7.868;2023-11-21T07:52:22;45.07;;;20.87;;
9924;SDS011;5001;51.674;7.868;2023-11-21T07:54:50;39.13;;;19.40;;
9924;SDS011;5001;51.674;7.868;2023-11-21T07:57:17;42.03;;;20.97;;
9924;SDS011;5001;51.674;7.868;2023-11-21T07:59:44;43.47;;;21.33;;
9924;SDS011;5001;51.674;7.868;2023-11-21T08:02:11;36.13;;;19.87;;
9924;SDS011;5001;51.674;7.868;2023-11-21T08:04:38;33.80;;;20.03;;
9924;SDS011;5001;51.674;7.868;2023-11-21T08:07:05;41.33;;;20.40;;
9924;SDS011;5001;51.674;7.868;2023-11-21T08:09:32;64.97;;;42.57;;
9924;SDS011;5001;51.674;7.868;2023-11-21T08:12:02;40.13;;;24.83;;
9924;SDS011;5001;51.674;7.868;2023-11-21T08:14:29;38.90;;;19.47;;
9924;SDS011;5001;51.674;7.868;2023-11-21T08:16:56;37.47;;;19.93;;
9924;SDS011;5001;51.674;7.868;2023-11-21T08:19:24;37.47;;;20.27;;
9924;SDS011;5001;51.674;7.868;2023-11-21T08:21:51;38.13;;;20.63;;
9924;SDS011;5001;51.674;7.868;2023-11-21T08:24:21;40.43;;;20.90;;
9924;SDS011;5001;51.674;7.868;2023-11-21T08:26:48;41.20;;;21.53;;
9924;SDS011;5001;51.674;7.868;2023-11-21T08:29:16;33.37;;;20.83;;
9924;SDS011;5001;51.674;7.868;2023-11-21T08:31:43;31.80;;;20.40;;
9924;SDS011;5001;51.674;7.868;2023-11-21T08:34:13;32.07;;;21.00;;
9924;SDS011;5001;51.674;7.868;2023-11-21T08:36:44;27.43;;;18.97;;
9924;SDS011;5001;51.674;7.868;2023-11-21T08:39:12;34.70;;;19.40;;
9924;SDS011;5001;51.674;7.868;2023-11-21T08:41:39;37.40;;;21.33;;
9924;SDS011;5001;51.674;7.868;2023-11-21T08:44:07;29.03;;;19.47;;
9924;SDS011;5001;51.674;7.868;2023-11-21T08:46:34;35.00;;;19.43;;
9924;SDS011;5001;51.674;7.868;2023-11-21T08:49:03;123.70;;;57.47;;
9924;SDS011;5001;51.674;7.868;2023-11-21T08:51:30;41.63;;;23.13;;
9924;SDS011;5001;51.674;7.868;2023-11-21T08:53:57;32.40;;;23.33;;
9924;SDS011;5001;51.674;7.868;2023-11-21T08:56:27;37.43;;;22.13;;
9924;SDS011;5001;51.674;7.868;2023-11-21T08:58:54;33.13;;;20.70;;
9924;SDS011;5001;51.674;7.868;2023-11-21T09:01:21;28.63;;;19.33;;
9924;SDS011;5001;51.674;7.868;2023-11-21T09:03:48;30.17;;;19.87;;
9924;SDS011;5001;51.674;7.868;2023-11-21T09:06:16;32.87;;;21.00;;
9924;SDS011;5001;51.674;7.868;2023-11-21T09:08:43;44.03;;;21.90;;
9924;SDS011;5001;51.674;7.868;2023-11-21T09:11:10;27.00;;;19.70;;
9924;SDS011;5001;51.674;7.868;2023-11-21T09:13:37;34.30;;;21.00;;
9924;SDS011;5001;51.674;7.868;2023-11-21T09:16:04;33.43;;;19.47;;
9924;SDS011;5001;51.674;7.868;2023-11-21T09:18:32;43.00;;;21.60;;
9924;SDS011;5001;51.674;7.868;2023-11-21T09:20:59;27.93;;;20.60;;
9924;SDS011;5001;51.674;7.868;2023-11-21T09:23:26;32.27;;;21.57;;
9924;SDS011;5001;51.674;7.868;2023-11-21T09:25:52;32.00;;;22.00;;
9924;SDS011;5001;51.674;7.868;2023-11-21T09:28:23;37.43;;;22.87;;
9924;SDS011;5001;51.674;7.868;2023-11-21T09:30:50;32.60;;;22.67;;
9924;SDS011;5001;51.674;7.868;2023-11-21T09:33:17;35.13;;;22.93;;
9924;SDS011;5001;51.674;7.868;2023-11-21T09:35:44;37.40;;;21.43;;
9924;SDS011;5001;51.674;7.868;2023-11-21T09:38:11;45.37;;;24.27;;
9924;SDS011;5001;51.674;7.868;2023-11-21T09:40:38;36.27;;;24.63;;
9924;SDS011;5001;51.674;7.868;2023-11-21T09:43:06;37.77;;;22.10;;
9924;SDS011;5001;51.674;7.868;2023-11-21T09:45:46;34.67;;;20.10;;
9924;SDS011;5001;51.674;7.868;2023-11-21T09:48:14;28.53;;;20.53;;
9924;SDS011;5001;51.674;7.868;2023-11-21T09:50:43;30.20;;;20.37;;
9924;SDS011;5001;51.674;7.868;2023-11-21T09:53:16;36.13;;;21.87;;
9924;SDS011;5001;51.674;7.868;2023-11-21T09:55:48;36.77;;;21.63;;
9924;SDS011;5001;51.674;7.868;2023-11-21T09:58:18;32.80;;;19.93;;
9924;SDS011;5001;51.674;7.868;2023-11-21T10:00:46;39.57;;;22.07;;
9924;SDS011;5001;51.674;7.868;2023-11-21T10:03:14;37.77;;;20.90;;
9924;SDS011;5001;51.674;7.868;2023-11-21T10:05:43;41.80;;;21.63;;
9924;SDS011;5001;51.674;7.868;2023-11-21T10:08:12;32.97;;;19.40;;
9924;SDS011;5001;51.674;7.868;2023-11-21T10:10:42;34.80;;;21.13;;
9924;SDS011;5001;51.674;7.868;2023-11-21T10:13:15;32.50;;;20.00;;
9924;SDS011;5001;51.674;7.868;2023-11-21T10:15:44;37.80;;;20.80;;
9924;SDS011;5001;51.674;7.868;2023-11-21T10:18:16;29.50;;;19.40;;
9924;SDS011;5001;51.674;7.868;2023-11-21T10:20:44;32.73;;;19.40;;
9924;SDS011;5001;51.674;7.868;2023-11-21T10:23:20;31.97;;;18.97;;
9924;SDS011;5001;51.674;7.868;2023-11-21T10:25:49;28.07;;;18.67;;
9924;SDS011;5001;51.674;7.868;2023-11-21T10:28:18;28.13;;;20.93;;
9924;SDS011;5001;51.674;7.868;2023-11-21T10:30:47;30.63;;;18.97;;
9924;SDS011;5001;51.674;7.868;2023-11-21T10:33:14;32.77;;;20.60;;
9924;SDS011;5001;51.674;7.868;2023-11-21T10:38:08;28.13;;;18.47;;
9924;SDS011;5001;51.674;7.868;2023-11-21T10:40:40;24.40;;;18.30;;
9924;SDS011;5001;51.674;7.868;2023-11-21T10:43:08;24.17;;;17.90;;
9924;SDS011;5001;51.674;7.868;2023-11-21T10:45:39;24.90;;;17.73;;
9924;SDS011;5001;51.674;7.868;2023-11-21T10:48:07;24.33;;;17.83;;
9924;SDS011;5001;51.674;7.868;2023-11-21T10:50:46;21.60;;;17.13;;
9924;SDS011;5001;51.674;7.868;2023-11-21T10:53:13;27.67;;;17.17;;
9924;SDS011;5001;51.674;7.868;2023-11-21T10:55:41;20.63;;;16.37;;
9924;SDS011;5001;51.674;7.868;2023-11-21T10:58:11;23.37;;;15.50;;
9924;SDS011;5001;51.674;7.868;2023-11-21T11:00:40;23.50;;;16.17;;
9924;SDS011;5001;51.674;7.868;2023-11-21T11:03:07;18.67;;;14.77;;
9924;SDS011;5001;51.674;7.868;2023-11-21T11:05:43;21.70;;;15.10;;
9924;SDS011;5001;51.674;7.868;2023-11-21T11:08:19;18.10;;;14.97;;
9924;SDS011;5001;51.674;7.868;2023-11-21T11:10:53;27.53;;;15.37;;
9924;SDS011;5001;51.674;7.868;2023-11-21T11:13:21;17.43;;;15.57;;
9924;SDS011;5001;51.674;7.868;2023-11-21T11:15:49;17.30;;;14.60;;
9924;SDS011;5001;51.674;7.868;2023-11-21T11:18:16;18.37;;;15.43;;
9924;SDS011;5001;51.674;7.868;2023-11-21T11:20:45;16.87;;;15.03;;
9924;SDS011;5001;51.674;7.868;2023-11-21T11:34:04;19.03;;;15.87;;
9924;SDS011;5001;51.674;7.868;2023-11-21T11:36:43;17.93;;;14.93;;
9924;SDS011;5001;51.674;7.868;2023-11-21T11:39:37;19.03;;;15.93;;
9924;SDS011;5001;51.674;7.868;2023-11-21T11:42:06;22.60;;;16.23;;
9924;SDS011;5001;51.674;7.868;2023-11-21T11:47:13;19.70;;;15.37;;
9924;SDS011;5001;51.674;7.868;2023-11-21T11:52:47;18.23;;;15.27;;
9924;SDS011;5001;51.674;7.868;2023-11-21T11:55:18;17.87;;;14.83;;
9924;SDS011;5001;51.674;7.868;2023-11-21T12:00:15;17.47;;;14.90;;
9924;SDS011;5001;51.674;7.868;2023-11-21T12:02:48;20.67;;;15.90;;
9924;SDS011;5001;51.674;7.868;2023-11-21T12:05:19;16.63;;;14.87;;
9924;SDS011;5001;51.674;7.868;2023-11-21T12:10:15;18.63;;;15.37;;
9924;SDS011;5001;51.674;7.868;2023-11-21T12:12:48;23.73;;;16.47;;
9924;SDS011;5001;51.674;7.868;2023-11-21T12:15:19;22.23;;;18.13;;
9924;SDS011;5001;51.674;7.868;2023-11-21T12:17:46;17.53;;;14.83;;
9924;SDS011;5001;51.674;7.868;2023-11-21T12:20:14;15.60;;;13.87;;
9924;SDS011;5001;51.674;7.868;2023-11-21T12:22:51;18.83;;;14.90;;
9924;SDS011;5001;51.674;7.868;2023-11-21T12:25:23;16.67;;;13.23;;
9924;SDS011;5001;51.674;7.868;2023-11-21T12:27:55;15.87;;;13.50;;
9924;SDS011;5001;51.674;7.868;2023-11-21T12:30:27;16.33;;;13.27;;
9924;SDS011;5001;51.674;7.868;2023-11-21T12:33:02;17.63;;;13.60;;
9924;SDS011;5001;51.674;7.868;2023-11-21T12:35:31;17.47;;;14.10;;
9924;SDS011;5001;51.674;7.868;2023-11-21T12:38:01;19.90;;;13.63;;
9924;SDS011;5001;51.674;7.868;2023-11-21T12:40:29;14.63;;;12.97;;
9924;SDS011;5001;51.674;7.868;2023-11-21T12:42:57;13.00;;;11.73;;
9924;SDS011;5001;51.674;7.868;2023-11-21T12:45:28;14.33;;;12.83;;
9924;SDS011;5001;51.674;7.868;2023-11-21T12:47:59;13.67;;;12.37;;
9924;SDS011;5001;51.674;7.868;2023-11-21T12:50:30;13.43;;;11.77;;
9924;SDS011;5001;51.674;7.868;2023-11-21T12:53:02;13.23;;;11.93;;
9924;SDS011;5001;51.674;7.868;2023-11-21T12:55:32;11.47;;;10.47;;
9924;SDS011;5001;51.674;7.868;2023-11-21T12:58:05;11.87;;;10.87;;
9924;SDS011;5001;51.674;7.868;2023-11-21T13:00:39;12.40;;;11.20;;
9924;SDS011;5001;51.674;7.868;2023-11-21T13:03:09;11.87;;;10.90;;
9924;SDS011;5001;51.674;7.868;2023-11-21T13:05:40;12.03;;;11.03;;
9924;SDS011;5001;51.674;7.868;2023-11-21T13:08:14;12.60;;;11.50;;
9924;SDS011;5001;51.674;7.868;2023-11-21T13:10:46;12.37;;;11.37;;
9924;SDS011;5001;51.674;7.868;2023-11-21T13:13:16;13.13;;;11.80;;
9924;SDS011;5001;51.674;7.868;2023-11-21T13:15:51;13.93;;;12.63;;
9924;SDS011;5001;51.674;7.868;2023-11-21T13:18:25;12.00;;;10.90;;
9924;SDS011;5001;51.674;7.868;2023-11-21T13:20:54;13.97;;;12.57;;
9924;SDS011;5001;51.674;7.868;2023-11-21T13:23:23;16.60;;;14.73;;
9924;SDS011;5001;51.674;7.868;2023-11-21T13:25:51;14.27;;;12.53;;
9924;SDS011;5001;51.674;7.868;2023-11-21T13:28:28;11.83;;;10.73;;
9924;SDS011;5001;51.674;7.868;2023-11-21T13:31:00;11.73;;;10.67;;
9924;SDS011;5001;51.674;7.868;2023-11-21T13:33:48;12.33;;;11.10;;
9924;SDS011;5001;51.674;7.868;2023-11-21T13:36:23;12.97;;;10.87;;
9924;SDS011;5001;51.674;7.868;2023-11-21T13:38:55;13.20;;;11.80;;
9924;SDS011;5001;51.674;7.868;2023-11-21T13:41:22;13.00;;;11.30;;
9924;SDS011;5001;51.674;7.868;2023-11-21T13:43:57;14.57;;;12.83;;
9924;SDS011;5001;51.674;7.868;2023-11-21T13:46:42;15.53;;;12.90;;
9924;SDS011;5001;51.674;7.868;2023-11-21T13:49:10;17.90;;;13.87;;
9924;SDS011;5001;51.674;7.868;2023-11-21T13:51:37;16.63;;;14.00;;
9924;SDS011;5001;51.674;7.868;2023-11-21T13:54:11;19.97;;;13.47;;
9924;SDS011;5001;51.674;7.868;2023-11-21T13:56:38;16.87;;;13.53;;
9924;SDS011;5001;51.674;7.868;2023-11-21T13:59:07;18.00;;;13.90;;
9924;SDS011;5001;51.674;7.868;2023-11-21T14:01:55;22.13;;;15.67;;
9924;SDS011;5001;51.674;7.868;2023-11-21T14:04:23;19.20;;;15.40;;
9924;SDS011;5001;51.674;7.868;2023-11-21T14:06:57;21.00;;;16.50;;
9924;SDS011;5001;51.674;7.868;2023-11-21T14:09:27;26.53;;;15.43;;
9924;SDS011;5001;51.674;7.868;2023-11-21T14:12:02;18.13;;;15.00;;
9924;SDS011;5001;51.674;7.868;2023-11-21T14:14:33;18.47;;;15.20;;
9924;SDS011;5001;51.674;7.868;2023-11-21T14:17:00;20.93;;;17.33;;
9924;SDS011;5001;51.674;7.868;2023-11-21T14:19:33;18.83;;;16.17;;
9924;SDS011;5001;51.674;7.868;2023-11-21T14:22:03;20.00;;;17.10;;
9924;SDS011;5001;51.674;7.868;2023-11-21T14:24:30;18.57;;;15.47;;
9924;SDS011;5001;51.674;7.868;2023-11-21T14:26:58;15.77;;;14.17;;
9924;SDS011;5001;51.674;7.868;2023-11-21T14:29:25;15.30;;;13.80;;
9924;SDS011;5001;51.674;7.868;2023-11-21T14:31:54;14.90;;;13.40;;
9924;SDS011;5001;51.674;7.868;2023-11-21T14:34:23;19.27;;;13.97;;
9924;SDS011;5001;51.674;7.868;2023-11-21T14:36:53;19.50;;;13.83;;
9924;SDS011;5001;51.674;7.868;2023-11-21T14:39:21;15.67;;;14.07;;
9924;SDS011;5001;51.674;7.868;2023-11-21T14:41:51;14.63;;;13.17;;
9924;SDS011;5001;51.674;7.868;2023-11-21T14:44:25;14.70;;;13.20;;
9924;SDS011;5001;51.674;7.868;2023-11-21T14:46:55;15.93;;;14.33;;
9924;SDS011;5001;51.674;7.868;2023-11-21T14:49:25;14.80;;;13.40;;
9924;SDS011;5001;51.674;7.868;2023-11-21T14:51:54;15.37;;;13.83;;
9924;SDS011;5001;51.674;7.868;2023-11-21T14:54:21;20.30;;;14.60;;
9924;SDS011;5001;51.674;7.868;2023-11-21T14:57:09;14.80;;;13.40;;
9924;SDS011;5001;51.674;7.868;2023-11-21T14:59:43;15.90;;;14.30;;
9924;SDS011;5001;51.674;7.868;2023-11-21T15:02:24;15.70;;;14.20;;
9924;SDS011;5001;51.674;7.868;2023-11-21T15:05:14;14.97;;;13.63;;
9924;SDS011;5001;51.674;7.868;2023-11-21T15:07:43;14.17;;;12.90;;
9924;SDS011;5001;51.674;7.868;2023-11-21T15:10:12;14.30;;;12.90;;
9924;SDS011;5001;51.674;7.868;2023-11-21T15:12:42;14.17;;;12.77;;
9924;SDS011;5001;51.674;7.868;2023-11-21T15:15:11;15.43;;;13.93;;
9924;SDS011;5001;51.674;7.868;2023-11-21T15:17:40;18.63;;;13.93;;
9924;SDS011;5001;51.674;7.868;2023-11-21T15:20:09;15.80;;;14.27;;
9924;SDS011;5001;51.674;7.868;2023-11-21T15:22:42;15.93;;;14.33;;
9924;SDS011;5001;51.674;7.868;2023-11-21T15:25:09;14.90;;;13.47;;